TimeCDT,TemperatureF,Dew PointF,Humidity,Sea Level PressureIn,VisibilityMPH,Wind Direction,Wind SpeedMPH,Gust SpeedMPH,PrecipitationIn,Events,Conditions,WindDirDegrees,DateUTC
12:13 AM,66.2,62.6,88,30.01,10.0,SE,6.9,-,N/A,,Scattered Clouds,140,2013-04-16 05:13:00
12:18 AM,66.2,62.6,88,30.00,10.0,SE,6.9,-,N/A,,Mostly Cloudy,140,2013-04-16 05:18:00
12:23 AM,66.2,62.6,88,30.00,10.0,SE,6.9,-,N/A,,Mostly Cloudy,140,2013-04-16 05:23:00
12:58 AM,68.5,63.3,83,30.02,10.0,SSE,8.1,-,N/A,,Overcast,150,2013-04-16 05:58:00
1:08 AM,69.8,64.4,83,30.01,10.0,SSE,6.9,-,N/A,,Overcast,150,2013-04-16 06:08:00
1:13 AM,69.8,64.4,83,30.01,10.0,SSE,6.9,-,N/A,,Overcast,160,2013-04-16 06:13:00
1:58 AM,70.2,65.1,84,30.02,10.0,SSE,8.1,-,N/A,,Overcast,150,2013-04-16 06:58:00
2:58 AM,70.7,66.2,86,30.01,10.0,South,6.9,-,N/A,,Overcast,180,2013-04-16 07:58:00
3:48 AM,71.6,66.2,83,30.02,10.0,South,6.9,-,N/A,,Overcast,180,2013-04-16 08:48:00
3:58 AM,71.2,66.9,86,30.03,10.0,South,8.1,-,N/A,,Overcast,170,2013-04-16 08:58:00
4:03 AM,71.6,68.0,88,30.02,10.0,South,6.9,-,N/A,,Overcast,180,2013-04-16 09:03:00
4:33 AM,71.6,66.2,83,30.03,10.0,South,5.8,-,N/A,,Overcast,170,2013-04-16 09:33:00
4:38 AM,71.6,66.2,83,30.03,10.0,South,9.2,-,N/A,,Overcast,170,2013-04-16 09:38:00
4:58 AM,70.5,67.1,89,30.04,10.0,SSE,6.9,-,N/A,,Overcast,160,2013-04-16 09:58:00
5:03 AM,69.8,68.0,94,30.03,10.0,SSE,6.9,-,N/A,,Overcast,160,2013-04-16 10:03:00
5:13 AM,69.8,66.2,88,30.03,10.0,SSE,6.9,-,N/A,,Overcast,160,2013-04-16 10:13:00
5:58 AM,70.0,66.7,89,30.06,10.0,SSE,5.8,-,N/A,,Overcast,160,2013-04-16 10:58:00
6:03 AM,69.8,66.2,88,30.05,10.0,SSE,6.9,-,N/A,,Overcast,160,2013-04-16 11:03:00
6:08 AM,69.8,66.2,88,30.05,10.0,SSE,8.1,-,N/A,,Overcast,160,2013-04-16 11:08:00
6:58 AM,69.6,66.6,90,30.08,10.0,SSE,6.9,-,N/A,,Overcast,160,2013-04-16 11:58:00
7:38 AM,69.8,66.2,88,30.09,10.0,SE,4.6,-,N/A,,Mostly Cloudy,140,2013-04-16 12:38:00
7:48 AM,69.8,66.2,88,30.09,10.0,SE,5.8,-,N/A,,Mostly Cloudy,140,2013-04-16 12:48:00
7:53 AM,69.8,66.2,88,30.10,10.0,SE,6.9,-,N/A,,Mostly Cloudy,140,2013-04-16 12:53:00
7:58 AM,70.5,66.9,88,30.11,10.0,SSE,8.1,-,N/A,,Mostly Cloudy,150,2013-04-16 12:58:00
8:58 AM,72.1,66.4,82,30.12,10.0,South,8.1,-,N/A,,Mostly Cloudy,170,2013-04-16 13:58:00
9:23 AM,73.4,66.2,78,30.11,10.0,South,8.1,-,N/A,,Mostly Cloudy,170,2013-04-16 14:23:00
9:28 AM,73.4,66.2,78,30.11,10.0,South,9.2,-,N/A,,Mostly Cloudy,170,2013-04-16 14:28:00
9:38 AM,75.2,66.2,73,30.11,10.0,SSE,10.4,-,N/A,,Mostly Cloudy,160,2013-04-16 14:38:00
9:58 AM,74.8,66.4,75,30.13,10.0,SSW,10.4,-,N/A,,Mostly Cloudy,200,2013-04-16 14:58:00
10:08 AM,75.2,66.2,73,30.12,10.0,South,5.8,-,N/A,,Scattered Clouds,190,2013-04-16 15:08:00
10:58 AM,75.9,67.1,74,30.15,10.0,SW,8.1,-,N/A,,Scattered Clouds,220,2013-04-16 15:58:00
11:28 AM,78.8,66.2,65,30.13,10.0,South,4.6,-,N/A,,Mostly Cloudy,180,2013-04-16 16:28:00
11:33 AM,77.0,68.0,74,30.13,10.0,Calm,Calm,-,N/A,,Mostly Cloudy,360,2013-04-16 16:33:00
11:38 AM,77.0,68.0,74,30.13,10.0,West,3.5,-,N/A,,Mostly Cloudy,280,2013-04-16 16:38:00
11:43 AM,78.8,68.0,69,30.13,10.0,WSW,2.3,-,N/A,,Mostly Cloudy,240,2013-04-16 16:43:00
11:58 AM,78.8,67.3,68,30.14,10.0,WSW,5.8,-,N/A,,Mostly Cloudy,240,2013-04-16 16:58:00
12:08 PM,78.8,68.0,69,30.13,10.0,SW,5.8,-,N/A,,Mostly Cloudy,220,2013-04-16 17:08:00
12:23 PM,78.8,66.2,65,30.12,10.0,SW,6.9,-,N/A,,Mostly Cloudy,220,2013-04-16 17:23:00
12:28 PM,80.6,66.2,61,30.12,10.0,SW,8.1,-,N/A,,Overcast,220,2013-04-16 17:28:00
12:43 PM,80.6,68.0,65,30.12,10.0,SW,10.4,16.1,N/A,,Mostly Cloudy,230,2013-04-16 17:43:00
12:48 PM,80.6,66.2,61,30.12,10.0,West,3.5,-,N/A,,Mostly Cloudy,270,2013-04-16 17:48:00
12:53 PM,80.6,68.0,65,30.12,10.0,WSW,5.8,-,N/A,,Mostly Cloudy,250,2013-04-16 17:53:00
12:58 PM,79.9,67.3,65,30.13,10.0,SW,9.2,-,N/A,,Mostly Cloudy,230,2013-04-16 17:58:00
1:13 PM,80.6,66.2,61,30.11,10.0,SSW,8.1,-,N/A,,Scattered Clouds,210,2013-04-16 18:13:00
1:58 PM,81.3,67.3,62,30.11,10.0,SW,6.9,-,N/A,,Scattered Clouds,230,2013-04-16 18:58:00
2:58 PM,82.6,67.3,60,30.09,10.0,SW,5.8,-,N/A,,Scattered Clouds,230,2013-04-16 19:58:00
3:58 PM,84.4,67.3,56,30.07,10.0,SSW,12.7,-,N/A,,Partly Cloudy,200,2013-04-16 20:58:00
4:58 PM,83.8,66.7,56,30.08,10.0,SSW,11.5,-,N/A,,Partly Cloudy,200,2013-04-16 21:58:00
5:58 PM,83.8,66.6,56,30.06,10.0,South,8.1,-,N/A,,Scattered Clouds,170,2013-04-16 22:58:00
6:58 PM,80.4,66.2,62,30.06,10.0,South,4.6,-,N/A,,Clear,190,2013-04-16 23:58:00
7:58 PM,73.9,66.6,78,30.08,10.0,Calm,Calm,-,N/A,,Clear,0,2013-04-17 00:58:00
8:02 PM,73.4,66.2,78,30.07,10.0,Calm,Calm,-,N/A,Rain,Light Rain,0,2013-04-17 01:02:00
8:05 PM,73.4,66.2,78,30.07,10.0,Calm,Calm,-,N/A,,Clear,0,2013-04-17 01:05:00
8:06 PM,73.4,66.2,78,30.07,8.0,Calm,Calm,-,N/A,Rain,Light Rain,0,2013-04-17 01:06:00
8:11 PM,73.4,66.2,78,30.07,10.0,Calm,Calm,-,N/A,,Clear,0,2013-04-17 01:11:00
8:24 PM,71.6,66.2,83,30.08,7.0,Calm,Calm,-,N/A,Rain,Light Rain,0,2013-04-17 01:24:00
8:27 PM,71.6,66.2,83,30.08,10.0,Calm,Calm,-,N/A,,Clear,0,2013-04-17 01:27:00
8:28 PM,71.6,66.2,83,30.08,10.0,Calm,Calm,-,N/A,,Clear,0,2013-04-17 01:28:00
8:30 PM,71.6,66.2,83,30.08,10.0,Calm,Calm,-,N/A,,Clear,0,2013-04-17 01:30:00
8:34 PM,69.8,66.2,88,30.08,8.0,Calm,Calm,-,N/A,,Clear,0,2013-04-17 01:34:00
8:58 PM,70.3,66.4,87,30.09,10.0,Calm,Calm,-,0.00,,Clear,0,2013-04-17 01:58:00
9:33 PM,69.8,66.2,88,30.09,10.0,Calm,Calm,-,N/A,Rain,Light Rain,0,2013-04-17 02:33:00
9:38 PM,69.8,66.2,88,30.08,10.0,Calm,Calm,-,N/A,,Clear,0,2013-04-17 02:38:00
9:40 PM,69.8,66.2,88,30.09,10.0,Calm,Calm,-,N/A,,Clear,0,2013-04-17 02:40:00
9:41 PM,69.8,66.2,88,30.09,10.0,North,1.2,-,N/A,Rain,Light Rain,10,2013-04-17 02:41:00
9:48 PM,69.8,66.2,88,30.09,10.0,SSE,4.6,-,N/A,,Clear,160,2013-04-17 02:48:00
9:58 PM,70.3,66.7,88,30.10,10.0,SSE,4.6,-,0.00,,Clear,160,2013-04-17 02:58:00
10:08 PM,69.8,66.2,88,30.09,10.0,SE,4.6,-,N/A,Rain,Light Rain,140,2013-04-17 03:08:00
10:10 PM,69.8,66.2,88,30.09,10.0,SE,4.6,-,N/A,,Clear,140,2013-04-17 03:10:00
10:20 PM,69.8,66.2,88,30.09,10.0,SSE,4.6,-,N/A,Rain,Light Rain,150,2013-04-17 03:20:00
10:33 PM,69.8,66.2,88,30.09,10.0,SSE,6.9,-,N/A,,Clear,150,2013-04-17 03:33:00
10:34 PM,69.8,66.2,88,30.09,10.0,SSE,6.9,-,N/A,Rain,Light Rain,160,2013-04-17 03:34:00
10:45 PM,69.8,66.2,88,30.09,10.0,SSE,5.8,-,N/A,,Clear,160,2013-04-17 03:45:00
10:56 PM,69.8,66.2,88,30.10,10.0,South,6.9,-,N/A,,Light Drizzle,170,2013-04-17 03:56:00
10:58 PM,69.8,66.2,88,30.11,10.0,South,6.9,-,0.00,,Light Drizzle,170,2013-04-17 03:58:00
11:12 PM,69.8,66.2,88,30.10,10.0,SSE,6.9,-,N/A,,Clear,160,2013-04-17 04:12:00
11:34 PM,69.8,66.2,88,30.10,10.0,SSE,5.8,-,N/A,Rain,Light Rain,160,2013-04-17 04:34:00
11:46 PM,69.8,66.2,88,30.10,10.0,SSE,5.8,-,N/A,,Scattered Clouds,160,2013-04-17 04:46:00
11:58 PM,69.3,66.9,92,30.11,10.0,SSE,6.9,-,0.00,,Scattered Clouds,150,2013-04-17 04:58:00